Time;durP1;ratioP1;P1;durP2;ratioP2;P2;SDS_P1;SDS_P2;PMS_P1;PMS_P2;Temp;Humidity;BMP_temperature;BMP_pressure;BME280_temperature;BME280_humidity;BME280_pressure;Samples;Min_cycle;Max_cycle;Signal;HPM_P1;HPM_P2
2021/01/18 00:02:20;;;;;;;;;26.50;23.50;;;;;-10.33;63.83;101137.84;5132555;27;8819;-72
2021/01/18 00:05:10;;;;;;;;;39.00;33.50;;;;;-10.54;63.87;101150.06;5137240;27;8894;-72
2021/01/18 00:08:06;;;;;;;;;43.50;36.50;;;;;-10.61;63.93;101143.78;5133240;27;8923;-72
2021/01/18 00:11:01;;;;;;;;;30.50;29.00;;;;;-10.40;64.07;101151.94;5126795;27;8821;-72
2021/01/18 00:13:58;;;;;;;;;29.50;27.75;;;;;-10.40;63.89;101151.94;5146523;27;8895;-73
2021/01/18 00:16:54;;;;;;;;;37.25;36.25;;;;;-10.51;63.83;101154.22;5133636;27;8817;-72
2021/01/18 00:19:49;;;;;;;;;30.75;25.00;;;;;-10.48;63.96;101160.03;5149070;27;8833;-72
2021/01/18 00:22:46;;;;;;;;;43.25;40.50;;;;;-10.46;63.61;101167.88;5144184;27;8909;-72
2021/01/18 00:25:18;;;;;;;;;46.75;42.50;;;;;-10.51;63.68;101176.44;5135970;27;8860;-72
2021/01/18 00:28:13;;;;;;;;;44.00;35.75;;;;;-10.44;63.12;101171.19;5133326;27;8827;-72
2021/01/18 00:31:09;;;;;;;;;35.50;34.25;;;;;-10.26;62.93;101173.53;5143316;27;8831;-72
2021/01/18 00:33:37;;;;;;;;;40.00;40.00;;;;;-10.40;62.62;101180.53;5151159;27;8841;-72
2021/01/18 00:36:33;;;;;;;;;39.50;39.00;;;;;-10.37;62.55;101183.66;5134651;27;9708;-72
2021/01/18 00:39:28;;;;;;;;;41.00;34.50;;;;;-10.61;62.89;101194.56;5133127;27;8832;-72
2021/01/18 00:42:24;;;;;;;;;34.00;31.25;;;;;-10.54;62.85;101187.50;5132777;27;8911;-72
2021/01/18 00:45:21;;;;;;;;;31.50;27.75;;;;;-10.58;62.95;101202.25;5134878;27;8817;-72
2021/01/18 00:48:05;;;;;;;;;44.50;42.00;;;;;-10.35;62.60;101196.00;5145150;27;8845;-71
2021/01/18 00:51:00;;;;;;;;;31.50;28.75;;;;;-10.38;62.67;101200.72;5137534;27;8817;-72
2021/01/18 00:53:56;;;;;;;;;32.75;27.75;;;;;-10.43;62.88;101191.56;5152936;27;8864;-72
2021/01/18 00:56:52;;;;;;;;;28.50;27.00;;;;;-10.41;62.54;101190.38;5135574;27;8831;-72
2021/01/18 00:59:47;;;;;;;;;26.25;26.25;;;;;-10.28;62.64;101181.72;5135485;27;8831;-72
2021/01/18 01:02:15;;;;;;;;;37.75;31.75;;;;;-10.45;62.68;101185.56;5133326;27;8842;-71
2021/01/18 01:04:59;;;;;;;;;37.25;33.75;;;;;-10.44;62.92;101179.22;5132435;27;8909;-71
2021/01/18 01:07:59;;;;;;;;;34.75;32.25;;;;;-10.37;62.30;101188.16;5128482;27;8831;-71
2021/01/18 01:10:32;;;;;;;;;34.00;32.25;;;;;-10.25;63.02;101193.91;5134163;27;8935;-72
2021/01/18 01:13:28;;;;;;;;;35.75;34.75;;;;;-10.09;62.90;101188.38;5148083;27;8813;-71
2021/01/18 01:16:23;;;;;;;;;32.25;28.75;;;;;-10.27;62.29;101198.59;5136342;27;8854;-71
2021/01/18 01:19:23;;;;;;;;;31.25;30.00;;;;;-10.07;62.36;101191.69;5135275;27;8827;-71
2021/01/18 01:22:19;;;;;;;;;28.00;25.00;;;;;-10.01;61.70;101192.81;5141758;27;8819;-71
2021/01/18 01:25:19;;;;;;;;;66.25;53.50;;;;;-10.04;61.68;101198.50;5123259;27;8904;-71
2021/01/18 01:28:01;;;;;;;;;40.25;39.75;;;;;-9.98;61.05;101206.63;5136307;27;8845;-71
2021/01/18 01:30:57;;;;;;;;;53.00;48.50;;;;;-9.95;60.80;101198.25;5136374;27;8950;-71
2021/01/18 01:33:53;;;;;;;;;31.00;28.00;;;;;-10.04;60.24;101198.50;5137892;27;9632;-71
2021/01/18 01:36:48;;;;;;;;;36.00;32.00;;;;;-10.17;60.22;101193.81;5156078;27;8848;-70
2021/01/18 01:39:44;;;;;;;;;34.00;34.00;;;;;-10.13;60.13;101195.09;5138630;27;8862;-71
2021/01/18 01:42:40;;;;;;;;;29.25;28.00;;;;;-10.24;60.06;101199.09;5156082;27;8956;-72
2021/01/18 01:45:36;;;;;;;;;44.75;39.25;;;;;-10.03;59.81;101195.66;5146682;27;8817;-71
2021/01/18 01:48:07;;;;;;;;;56.25;47.25;;;;;-10.14;59.78;101196.09;5148396;27;8817;-72
2021/01/18 01:51:03;;;;;;;;;39.75;37.25;;;;;-10.17;60.77;101196.47;5123740;27;8827;-72
2021/01/18 01:54:00;;;;;;;;;70.50;57.25;;;;;-10.29;60.45;101196.13;5145178;27;8835;-72
2021/01/18 01:56:55;;;;;;;;;31.00;30.00;;;;;-10.34;60.41;101203.88;5138449;27;8815;-72
2021/01/18 01:59:52;;;;;;;;;35.50;35.50;;;;;-10.44;60.17;101211.28;5132516;27;8933;-72
2021/01/18 02:02:34;;;;;;;;;35.75;34.25;;;;;-10.53;60.19;101207.03;5137517;27;8966;-71
2021/01/18 02:05:15;;;;;;;;;40.00;37.00;;;;;-10.44;60.64;101213.97;5132215;27;8975;-71
2021/01/18 02:08:07;;;;;;;;;30.00;27.75;;;;;-10.52;60.93;101211.38;5145129;27;8831;-71
2021/01/18 02:11:05;;;;;;;;;28.75;27.00;;;;;-10.63;60.62;101209.97;5135211;27;8835;-70
2021/01/18 02:14:20;;;;;;;;;40.25;40.00;;;;;-10.59;60.49;101219.28;5141201;27;8811;-71
2021/01/18 02:17:36;;;;;;;;;37.25;35.75;;;;;-10.82;61.64;101221.97;5122654;27;8819;-71
2021/01/18 02:21:01;;;;;;;;;32.25;32.25;;;;;-10.51;61.31;101211.19;5135292;27;8865;-71
2021/01/18 02:24:09;;;;;;;;;32.75;30.25;;;;;-10.53;60.48;101223.09;5142076;27;8840;-71
2021/01/18 02:27:17;;;;;;;;;35.00;29.25;;;;;-10.69;60.73;101232.06;5134752;27;8835;-71
2021/01/18 02:30:37;;;;;;;;;38.75;34.75;;;;;-10.79;61.00;101234.16;5136804;27;8851;-73
2021/01/18 02:33:26;;;;;;;;;27.50;24.75;;;;;-10.89;61.09;101237.03;5137817;27;8837;-73
2021/01/18 02:36:52;;;;;;;;;28.00;24.50;;;;;-10.83;61.39;101232.81;5135138;27;8803;-73
2021/01/18 02:40:02;;;;;;;;;28.75;27.50;;;;;-10.86;60.97;101233.19;5134991;27;8803;-73
2021/01/18 02:42:58;;;;;;;;;34.25;32.75;;;;;-10.96;61.17;101238.78;5127583;27;8833;-74
2021/01/18 02:45:36;;;;;;;;;17.00;15.50;;;;;-11.11;61.75;101235.19;5135346;27;8857;-73
2021/01/18 02:48:31;;;;;;;;;28.00;25.33;;;;;-11.27;61.87;101247.63;5142383;27;8877;-73
2021/01/18 02:51:22;;;;;;;;;31.75;30.00;;;;;-11.05;61.35;101247.81;5134399;27;8946;-73
2021/01/18 02:54:17;;;;;;;;;36.00;31.00;;;;;-10.77;61.52;101262.34;5135148;27;8949;-73
2021/01/18 02:57:12;;;;;;;;;28.25;28.00;;;;;-10.81;61.23;101258.38;5135496;27;8923;-73
2021/01/18 03:00:26;;;;;;;;;30.50;30.50;;;;;-10.77;61.20;101258.84;5135943;27;8839;-73
2021/01/18 03:03:31;;;;;;;;;35.75;35.50;;;;;-10.62;61.03;101264.25;5141336;27;8825;-74
2021/01/18 03:06:37;;;;;;;;;27.25;25.25;;;;;-10.58;61.01;101260.19;5121847;27;8927;-73
2021/01/18 03:09:17;;;;;;;;;38.25;35.75;;;;;-10.52;60.87;101249.63;5144059;27;8827;-74
2021/01/18 03:12:20;;;;;;;;;29.25;29.25;;;;;-10.48;61.02;101255.47;5151081;27;8849;-74
2021/01/18 03:14:53;;;;;;;;;37.75;37.25;;;;;-10.71;60.61;101250.13;5117086;27;8831;-74
2021/01/18 03:17:51;;;;;;;;;59.50;46.75;;;;;-10.77;60.89;101243.63;5138022;27;8829;-73
2021/01/18 03:20:19;;;;;;;;;67.50;52.00;;;;;-10.90;60.82;101247.91;5138514;27;8857;-73
2021/01/18 03:23:15;;;;;;;;;86.25;65.50;;;;;-10.91;60.90;101243.56;5129889;27;8838;-73
2021/01/18 03:26:11;;;;;;;;;65.25;48.50;;;;;-10.74;60.99;101240.59;5133993;27;8865;-74
2021/01/18 03:29:07;;;;;;;;;64.50;52.50;;;;;-10.66;60.31;101242.38;5141664;27;8955;-72
2021/01/18 03:32:03;;;;;;;;;54.50;48.00;;;;;-10.67;60.22;101244.22;5133478;27;8837;-72
2021/01/18 03:34:58;;;;;;;;;43.75;43.25;;;;;-10.81;60.71;101241.50;5133406;27;8850;-72
2021/01/18 03:37:56;;;;;;;;;52.00;41.50;;;;;-10.90;60.73;101242.56;5118889;27;8823;-72
2021/01/18 03:40:52;;;;;;;;;40.50;39.25;;;;;-10.59;61.24;101237.16;5133712;27;8823;-72
2021/01/18 03:43:47;;;;;;;;;32.25;32.25;;;;;-10.48;60.68;101250.13;5137499;27;8879;-72
2021/01/18 03:46:46;;;;;;;;;37.00;35.50;;;;;-10.68;60.35;101255.09;5145148;27;8839;-72
2021/01/18 03:49:30;;;;;;;;;27.75;26.00;;;;;-10.42;60.33;101260.09;5133211;27;9584;-72
2021/01/18 03:52:25;;;;;;;;;40.25;37.25;;;;;-10.35;60.45;101268.22;5143263;27;8875;-72
2021/01/18 03:54:55;;;;;;;;;48.50;40.25;;;;;-10.32;60.61;101267.88;5142672;27;9682;-73
2021/01/18 03:57:53;;;;;;;;;51.50;40.75;;;;;-10.32;60.29;101265.19;5141603;27;9633;-73
2021/01/18 04:00:48;;;;;;;;;38.75;38.75;;;;;-10.39;59.73;101260.56;5145521;27;8850;-73
2021/01/18 04:03:30;;;;;;;;;42.00;41.75;;;;;-10.69;59.70;101261.47;5141775;27;8892;-72
2021/01/18 04:06:36;;;;;;;;;40.25;38.75;;;;;-10.77;59.49;101261.53;5119848;27;8841;-74
2021/01/18 04:09:04;;;;;;;;;39.00;37.75;;;;;-10.88;60.06;101277.97;5115260;27;8866;-72
2021/01/18 04:12:03;;;;;;;;;34.00;34.00;;;;;-10.73;59.76;101279.72;5142250;27;8811;-72
2021/01/18 04:14:59;;;;;;;;;38.00;36.50;;;;;-10.63;59.88;101282.13;5144619;27;8811;-72
2021/01/18 04:17:57;;;;;;;;;44.25;39.25;;;;;-10.58;59.85;101295.81;5140304;27;8854;-72
2021/01/18 04:20:52;;;;;;;;;43.75;37.75;;;;;-10.40;60.48;101307.03;5140455;27;8963;-72
2021/01/18 04:23:48;;;;;;;;;36.50;33.50;;;;;-10.29;60.17;101302.28;5141077;27;8857;-72
2021/01/18 04:26:29;;;;;;;;;44.25;43.25;;;;;-10.29;60.14;101303.09;5140034;27;8847;-72
2021/01/18 04:29:25;;;;;;;;;44.50;37.50;;;;;-10.25;60.90;101299.06;5133611;27;8823;-72
2021/01/18 04:32:21;;;;;;;;;47.00;44.00;;;;;-10.01;59.56;101305.19;5145459;27;8888;-72
2021/01/18 04:34:49;;;;;;;;;47.75;42.50;;;;;-10.09;59.34;101300.75;5134568;27;8831;-72
2021/01/18 04:37:16;;;;;;;;;52.00;47.50;;;;;-10.07;59.47;101300.56;5135141;27;8835;-73
2021/01/18 04:40:12;;;;;;;;;60.50;52.50;;;;;-10.12;60.21;101301.94;5132745;27;8843;-72
2021/01/18 04:43:04;;;;;;;;;60.75;50.75;;;;;-10.22;60.24;101301.34;5136258;27;8832;-72
2021/01/18 04:46:00;;;;;;;;;44.50;39.50;;;;;-10.14;60.03;101313.81;5120038;27;8823;-72
2021/01/18 04:48:59;;;;;;;;;47.75;46.25;;;;;-10.11;59.87;101321.50;5143317;27;8859;-72
2021/01/18 04:51:47;;;;;;;;;46.75;44.50;;;;;-9.97;59.84;101315.31;5153832;27;8817;-73
2021/01/18 04:54:18;;;;;;;;;40.75;38.50;;;;;-10.30;58.82;101312.13;5138050;27;8860;-73
2021/01/18 04:57:12;;;;;;;;;54.50;46.00;;;;;-10.10;59.55;101312.47;5119286;27;8840;-72
2021/01/18 05:00:09;;;;;;;;;53.00;48.00;;;;;-10.34;59.12;101310.03;5136823;27;8826;-72
2021/01/18 05:03:07;;;;;;;;;59.00;48.50;;;;;-10.70;59.98;101306.06;5136719;27;8812;-72
2021/01/18 05:06:12;;;;;;;;;48.50;45.50;;;;;-10.73;60.04;101305.59;5136521;27;8865;-72
2021/01/18 05:09:30;;;;;;;;;56.50;47.00;;;;;-10.53;59.72;101311.31;5132114;27;8809;-72
2021/01/18 05:12:26;;;;;;;;;54.50;50.00;;;;;-10.50;59.92;101322.50;5136590;27;8865;-72
2021/01/18 05:14:54;;;;;;;;;59.75;49.25;;;;;-10.44;60.31;101327.09;5128179;27;8848;-72
2021/01/18 05:17:43;;;;;;;;;45.50;45.25;;;;;-10.41;61.20;101318.75;5139785;27;8852;-72
2021/01/18 05:20:39;;;;;;;;;57.25;51.25;;;;;-10.18;60.84;101328.56;5122617;27;8863;-72
2021/01/18 05:23:39;;;;;;;;;50.75;46.25;;;;;-10.19;60.65;101318.91;5110506;27;8819;-72
2021/01/18 05:26:18;;;;;;;;;69.00;54.00;;;;;-10.23;61.24;101326.47;5118493;27;8843;-72
2021/01/18 05:29:14;;;;;;;;;60.50;50.00;;;;;-10.20;61.26;101320.72;5143564;27;8849;-71
2021/01/18 05:31:57;;;;;;;;;64.25;55.75;;;;;-10.27;61.66;101313.63;5121563;27;8834;-72
2021/01/18 05:34:43;;;;;;;;;54.75;49.25;;;;;-10.15;61.70;101322.84;5144465;27;8827;-73
2021/01/18 05:37:12;;;;;;;;;59.25;48.25;;;;;-10.00;62.37;101326.41;5141567;27;8936;-74
2021/01/18 05:40:21;;;;;;;;;74.00;59.50;;;;;-9.98;61.64;101315.50;5136815;27;8915;-73
2021/01/18 05:43:18;;;;;;;;;61.75;50.25;;;;;-10.20;61.57;101319.88;5124186;27;8816;-73
2021/01/18 05:46:21;;;;;;;;;54.00;46.00;;;;;-10.08;61.89;101331.84;5122412;27;8834;-72
2021/01/18 05:49:19;;;;;;;;;64.25;50.75;;;;;-9.97;61.38;101328.72;5136108;27;8835;-73
2021/01/18 05:52:29;;;;;;;;;65.25;53.75;;;;;-9.97;62.24;101344.75;5138438;27;9620;-73
2021/01/18 05:55:18;;;;;;;;;52.00;47.25;;;;;-9.67;61.39;101361.72;5134664;27;8858;-72
2021/01/18 05:57:58;;;;;;;;;54.75;46.75;;;;;-9.82;61.53;101364.38;5142807;27;8817;-71
2021/01/18 06:00:28;;;;;;;;;51.25;47.25;;;;;-9.96;61.08;101359.84;5129415;27;8875;-71
2021/01/18 06:03:31;;;;;;;;;53.75;47.75;;;;;-9.75;61.09;101355.63;5131037;27;8835;-70
2021/01/18 06:05:59;;;;;;;;;53.50;44.75;;;;;-9.86;61.20;101359.59;5140008;27;8847;-71
2021/01/18 06:08:55;;;;;;;;;60.25;47.50;;;;;-9.54;61.04;101359.25;5140623;27;8819;-71
2021/01/18 06:11:50;;;;;;;;;68.25;49.00;;;;;-9.75;60.39;101352.94;5141604;27;8928;-71
2021/01/18 06:15:09;;;;;;;;;72.25;56.50;;;;;-9.92;60.72;101337.03;5138388;27;8869;-71
2021/01/18 06:17:56;;;;;;;;;67.00;57.25;;;;;-10.00;60.80;101330.94;5135073;27;8816;-70
2021/01/18 06:20:27;;;;;;;;;67.00;53.00;;;;;-10.05;60.97;101320.75;5135921;27;8862;-71
2021/01/18 06:23:09;;;;;;;;;68.75;55.00;;;;;-9.87;61.34;101326.63;5137295;27;8815;-70
2021/01/18 06:25:58;;;;;;;;;62.00;48.50;;;;;-9.85;60.81;101335.31;5135644;27;8823;-70
2021/01/18 06:28:38;;;;;;;;;53.25;48.75;;;;;-9.72;60.71;101333.88;5117476;27;8823;-70
2021/01/18 06:31:08;;;;;;;;;64.00;53.00;;;;;-9.62;60.52;101335.25;5136600;27;8851;-70
2021/01/18 06:33:38;;;;;;;;;69.75;54.75;;;;;-9.77;60.30;101337.06;5137370;27;9631;-70
2021/01/18 06:36:21;;;;;;;;;68.75;54.00;;;;;-9.62;60.16;101334.41;5135865;27;8827;-70
2021/01/18 06:39:23;;;;;;;;;64.50;52.50;;;;;-9.85;60.10;101329.13;5134248;27;8857;-70
2021/01/18 06:42:10;;;;;;;;;60.25;49.00;;;;;-9.63;59.74;101338.94;5136210;27;8839;-71
2021/01/18 06:44:41;;;;;;;;;67.50;56.00;;;;;-9.53;59.70;101344.84;5135528;27;8827;-71
2021/01/18 06:47:32;;;;;;;;;111.00;94.50;;;;;-9.35;59.21;101341.84;5141923;27;8821;-71
2021/01/18 06:50:30;;;;;;;;;75.50;54.50;;;;;-9.22;58.81;101343.03;5152285;27;8996;-72
2021/01/18 06:53:16;;;;;;;;;74.50;60.50;;;;;-9.05;58.39;101334.59;5118391;27;8859;-72
2021/01/18 06:56:07;;;;;;;;;35.50;35.00;;;;;-9.45;57.84;101343.94;5135703;27;8827;-72
2021/01/18 06:59:12;;;;;;;;;70.00;57.00;;;;;-8.97;57.41;101361.31;5134954;27;8962;-72
2021/01/18 07:01:42;;;;;;;;;56.75;47.00;;;;;-9.43;57.52;101347.28;5159900;27;8845;-73
2021/01/18 07:04:14;;;;;;;;;46.50;43.00;;;;;-9.08;57.39;101340.34;5136797;27;8845;-73
2021/01/18 07:06:45;;;;;;;;;65.00;51.25;;;;;-8.92;57.71;101344.66;5123473;27;9603;-74
2021/01/18 07:10:03;;;;;;;;;61.50;51.75;;;;;-8.65;56.56;101358.41;5127786;27;8824;-72
2021/01/18 07:12:31;;;;;;;;;72.00;55.75;;;;;-8.71;56.20;101358.13;5142090;27;8815;-73
2021/01/18 07:15:10;;;;;;;;;65.25;57.25;;;;;-8.46;56.10;101352.44;5134753;27;8833;-73
2021/01/18 07:17:51;;;;;;;;;61.25;52.25;;;;;-8.25;55.93;101363.16;5127278;27;8839;-73
2021/01/18 07:20:23;;;;;;;;;58.00;49.50;;;;;-8.16;55.30;101366.53;5144171;27;9595;-72
2021/01/18 07:23:28;;;;;;;;;70.00;57.00;;;;;-8.12;55.57;101376.72;5125407;27;8965;-72
2021/01/18 07:26:26;;;;;;;;;57.75;48.75;;;;;-7.72;55.11;101378.94;5142757;27;8845;-72
2021/01/18 07:29:25;;;;;;;;;47.00;38.00;;;;;-7.63;55.19;101377.75;5141968;27;8865;-72
2021/01/18 07:32:23;;;;;;;;;68.75;54.75;;;;;-7.56;54.08;101373.25;5136648;27;8869;-73
2021/01/18 07:35:13;;;;;;;;;59.25;47.75;;;;;-7.69;54.34;101375.84;5124392;27;9583;-72
2021/01/18 07:37:40;;;;;;;;;75.00;56.50;;;;;-7.49;53.93;101374.16;5145760;27;8911;-72
2021/01/18 07:40:18;;;;;;;;;76.75;61.25;;;;;-7.83;53.97;101391.00;5139744;27;8845;-72
2021/01/18 07:42:46;;;;;;;;;71.25;55.25;;;;;-7.60;54.19;101393.47;5152706;27;8829;-72
2021/01/18 07:45:16;;;;;;;;;84.25;65.50;;;;;-7.33;54.11;101398.03;5121023;27;8829;-72
2021/01/18 07:48:04;;;;;;;;;82.00;66.75;;;;;-6.73;54.97;101390.31;5145118;27;9609;-72
2021/01/18 07:50:39;;;;;;;;;82.00;65.00;;;;;-6.64;54.77;101389.13;5134139;27;8865;-72
2021/01/18 07:53:12;;;;;;;;;65.75;54.25;;;;;-6.55;53.68;101404.06;5124781;27;8837;-73
2021/01/18 07:56:01;;;;;;;;;55.75;48.00;;;;;-6.43;53.41;101400.81;5106082;27;8976;-72
2021/01/18 07:58:31;;;;;;;;;39.00;39.00;;;;;-6.21;53.63;101396.91;5121320;27;8838;-73
2021/01/18 08:01:08;;;;;;;;;67.00;55.50;;;;;-6.29;52.80;101394.41;5151633;27;8857;-73
2021/01/18 08:03:44;;;;;;;;;66.00;55.00;;;;;-6.42;53.26;101392.53;5150942;27;8829;-72
2021/01/18 08:06:15;;;;;;;;;66.00;54.25;;;;;-6.75;53.94;101400.44;5148490;27;8852;-70
2021/01/18 08:09:27;;;;;;;;;62.00;53.50;;;;;-6.42;53.44;101403.28;5139546;27;8878;-72
2021/01/18 08:12:32;;;;;;;;;54.50;48.50;;;;;-6.81;52.85;101412.00;5124790;27;8910;-72
2021/01/18 08:15:28;;;;;;;;;55.50;47.00;;;;;-6.52;53.76;101419.81;5130465;27;8845;-71
2021/01/18 08:18:27;;;;;;;;;60.75;48.50;;;;;-6.71;53.29;101420.53;5153493;27;8840;-71
2021/01/18 08:20:54;;;;;;;;;66.75;56.00;;;;;-6.81;53.33;101415.53;5135696;27;8833;-72
2021/01/18 08:23:50;;;;;;;;;73.50;57.25;;;;;-7.08;53.17;101403.78;5140445;27;8825;-71
2021/01/18 08:26:18;;;;;;;;;44.50;44.50;;;;;-7.04;53.70;101407.75;5144541;27;8823;-71
2021/01/18 08:29:51;;;;;;;;;63.00;52.50;;;;;-7.16;52.86;101417.38;5140889;27;8880;-72
2021/01/18 08:32:39;;;;;;;;;52.00;45.25;;;;;-7.38;55.00;101395.09;5138756;27;8839;-68
2021/01/18 08:35:54;;;;;;;;;74.75;61.00;;;;;-7.32;53.96;101410.44;5136986;27;8862;-69
2021/01/18 08:38:30;;;;;;;;;65.00;54.50;;;;;-7.32;54.46;101406.94;5149597;27;9640;-68
2021/01/18 08:41:22;;;;;;;;;74.00;61.50;;;;;-7.10;54.43;101399.63;5149568;27;9587;-69
2021/01/18 08:43:51;;;;;;;;;66.25;57.00;;;;;-7.33;54.31;101391.84;5152856;27;8848;-69
2021/01/18 08:46:47;;;;;;;;;96.00;76.50;;;;;-7.28;54.40;101392.09;5141954;27;8914;-69
2021/01/18 08:49:43;;;;;;;;;96.75;76.50;;;;;-7.30;54.90;101404.88;5124567;27;8853;-70
2021/01/18 08:52:40;;;;;;;;;84.25;69.00;;;;;-7.09;54.54;101398.59;5143267;27;8855;-70
2021/01/18 08:55:29;;;;;;;;;76.25;63.75;;;;;-7.49;55.10;101392.97;5138693;27;8835;-69
2021/01/18 08:58:07;;;;;;;;;91.25;69.00;;;;;-7.41;55.19;101397.34;5139935;27;8888;-68
2021/01/18 09:00:57;;;;;;;;;92.00;72.25;;;;;-7.33;54.94;101389.97;5144757;27;8869;-68
2021/01/18 09:03:27;;;;;;;;;95.50;73.25;;;;;-7.40;54.95;101388.28;5119452;27;8930;-70
2021/01/18 09:06:25;;;;;;;;;92.00;71.00;;;;;-7.32;54.89;101396.19;5135595;27;8950;-68
2021/01/18 09:09:25;;;;;;;;;89.00;69.50;;;;;-7.61;55.61;101389.97;5129909;27;8863;-68
2021/01/18 09:12:21;;;;;;;;;99.75;74.50;;;;;-7.56;54.91;101384.00;5148238;27;8924;-69
2021/01/18 09:14:48;;;;;;;;;103.50;79.00;;;;;-7.25;54.72;101382.78;5139853;27;8854;-69
2021/01/18 09:17:25;;;;;;;;;97.50;76.50;;;;;-6.88;55.68;101387.78;5145790;27;8837;-68
2021/01/18 09:19:54;;;;;;;;;104.25;81.00;;;;;-6.38;54.47;101379.47;5135314;27;8878;-68
2021/01/18 09:22:37;;;;;;;;;94.25;73.75;;;;;-6.49;54.68;101387.13;5144879;27;8900;-69
2021/01/18 09:25:05;;;;;;;;;106.25;80.50;;;;;-6.25;51.84;101388.44;5136654;27;8854;-70
2021/01/18 09:27:47;;;;;;;;;105.25;78.75;;;;;-6.10;53.42;101396.34;5136839;27;8945;-69
2021/01/18 09:30:28;;;;;;;;;93.25;72.50;;;;;-6.17;52.67;101395.50;5144587;27;9571;-70
2021/01/18 09:32:58;;;;;;;;;105.00;75.00;;;;;-5.99;51.27;101390.34;5127832;27;8832;-69
2021/01/18 09:35:54;;;;;;;;;97.25;72.50;;;;;-5.70;51.59;101394.50;5143629;27;8839;-69
2021/01/18 09:38:50;;;;;;;;;95.25;72.25;;;;;-5.36;50.23;101384.56;5121600;27;8808;-69
2021/01/18 09:41:39;;;;;;;;;93.50;72.75;;;;;-5.32;48.67;101389.31;5128238;27;8873;-68
2021/01/18 09:44:30;;;;;;;;;98.00;75.00;;;;;-5.32;50.20;101392.00;5144763;27;8827;-68
2021/01/18 09:47:27;;;;;;;;;74.00;61.00;;;;;-5.06;48.26;101384.91;5122916;27;8843;-68
2021/01/18 09:50:23;;;;;;;;;78.75;61.50;;;;;-4.85;48.08;101386.50;5130718;27;8954;-68
2021/01/18 09:53:09;;;;;;;;;84.00;61.50;;;;;-4.67;47.95;101381.28;5141947;27;8832;-68
2021/01/18 09:55:51;;;;;;;;;78.25;63.00;;;;;-4.75;48.07;101381.50;5135633;27;8839;-68
2021/01/18 09:58:23;;;;;;;;;85.75;68.00;;;;;-4.43;47.82;101374.31;5137937;27;8850;-68
2021/01/18 10:01:19;;;;;;;;;73.25;57.25;;;;;-4.54;46.45;101378.50;5134673;27;8854;-68
2021/01/18 10:03:56;;;;;;;;;71.75;57.50;;;;;-4.37;47.20;101380.72;5147778;27;8835;-67
2021/01/18 10:07:02;;;;;;;;;61.50;52.50;;;;;-4.53;46.97;101374.75;5145396;27;8838;-68
2021/01/18 10:10:00;;;;;;;;;81.50;65.00;;;;;-4.55;46.38;101370.63;5140003;27;8936;-68
2021/01/18 10:12:48;;;;;;;;;71.00;57.25;;;;;-4.19;47.20;101367.34;5149962;27;8872;-68
2021/01/18 10:15:27;;;;;;;;;74.00;61.50;;;;;-4.32;47.00;101365.53;5136439;27;8832;-69
2021/01/18 10:18:27;;;;;;;;;59.75;53.50;;;;;-4.27;45.68;101365.72;5129050;27;8833;-68
2021/01/18 10:20:55;;;;;;;;;71.00;58.50;;;;;-3.88;46.37;101355.69;5130017;27;8907;-69
2021/01/18 10:23:33;;;;;;;;;72.50;59.25;;;;;-3.79;45.25;101353.53;5145046;27;8831;-70
2021/01/18 10:26:36;;;;;;;;;77.00;64.00;;;;;-3.76;46.07;101348.50;5120314;27;8869;-70
2021/01/18 10:29:30;;;;;;;;;72.00;59.00;;;;;-3.37;45.35;101357.38;5137905;27;8981;-69
2021/01/18 10:32:44;;;;;;;;;81.25;61.00;;;;;-3.49;44.90;101348.31;5129439;27;8847;-69
2021/01/18 10:35:19;;;;;;;;;79.00;62.00;;;;;-3.44;44.19;101349.31;5120972;27;8862;-71
2021/01/18 10:37:46;;;;;;;;;71.50;57.50;;;;;-3.50;43.48;101344.78;5140490;27;8841;-70
2021/01/18 10:40:20;;;;;;;;;71.50;55.25;;;;;-3.22;44.14;101333.50;5140841;27;8947;-71
2021/01/18 10:43:22;;;;;;;;;79.50;61.50;;;;;-3.59;43.47;101334.47;5132756;27;8871;-71
2021/01/18 10:46:13;;;;;;;;;77.50;60.00;;;;;-3.16;44.45;101329.88;5135564;27;9588;-69
2021/01/18 10:48:41;;;;;;;;;32.50;28.50;;;;;-3.20;42.82;101328.69;5136314;27;8835;-70
2021/01/18 10:51:09;;;;;;;;;80.75;66.00;;;;;-2.91;44.25;101316.28;5119845;27;8894;-70
2021/01/18 10:53:55;;;;;;;;;87.50;67.00;;;;;-2.67;42.67;101319.13;5149682;27;9725;-71
2021/01/18 10:56:58;;;;;;;;;88.25;68.75;;;;;-2.82;42.91;101304.09;5144051;27;8825;-71
2021/01/18 10:59:27;;;;;;;;;93.25;69.25;;;;;-3.24;43.80;101311.22;5137865;27;8830;-71
2021/01/18 11:02:14;;;;;;;;;92.75;68.50;;;;;-3.13;44.81;101313.19;5125424;27;8837;-70
2021/01/18 11:05:10;;;;;;;;;85.25;67.75;;;;;-2.62;44.13;101317.34;5129342;27;8855;-71
2021/01/18 11:07:52;;;;;;;;;92.00;65.75;;;;;-2.63;42.47;101321.13;5141020;27;8946;-71
2021/01/18 11:10:47;;;;;;;;;85.00;68.50;;;;;-3.03;42.23;101320.78;5135702;27;8869;-70
2021/01/18 11:13:44;;;;;;;;;94.75;72.75;;;;;-2.85;42.24;101322.66;5148967;27;8824;-72
2021/01/18 11:16:39;;;;;;;;;93.75;72.25;;;;;-2.62;42.71;101328.19;5120382;27;8839;-71
2021/01/18 11:19:07;;;;;;;;;124.50;105.25;;;;;-2.50;43.31;101333.69;5125872;27;8829;-71
2021/01/18 11:21:35;;;;;;;;;112.75;88.00;;;;;-2.21;41.37;101328.50;5120750;27;9021;-71
2021/01/18 11:24:03;;;;;;;;;101.00;75.25;;;;;-2.82;41.43;101333.88;5143547;27;8965;-71
2021/01/18 11:26:30;;;;;;;;;99.00;76.00;;;;;-3.13;43.15;101337.56;5144251;27;8907;-70
2021/01/18 11:29:29;;;;;;;;;98.00;72.00;;;;;-3.26;42.70;101334.97;5136955;27;8874;-70
2021/01/18 11:32:24;;;;;;;;;92.50;70.75;;;;;-3.42;44.85;101336.38;5144422;27;8983;-70
2021/01/18 11:35:20;;;;;;;;;89.50;67.50;;;;;-3.73;43.01;101325.63;5137646;27;8863;-69
2021/01/18 11:38:15;;;;;;;;;90.00;66.25;;;;;-3.38;43.86;101339.44;5134721;27;8821;-70
2021/01/18 11:41:11;;;;;;;;;79.75;66.00;;;;;-3.48;42.94;101341.84;5139324;27;8879;-68
2021/01/18 11:43:38;;;;;;;;;88.00;70.00;;;;;-3.52;43.34;101349.59;5145339;27;8943;-69
2021/01/18 11:46:06;;;;;;;;;80.75;66.00;;;;;-3.33;42.60;101357.72;5143750;27;8839;-70
2021/01/18 11:48:33;;;;;;;;;58.75;52.75;;;;;-3.33;43.01;101353.16;5140572;27;8843;-70
2021/01/18 11:51:02;;;;;;;;;75.75;60.25;;;;;-3.30;42.61;101347.28;5134260;27;8907;-71
2021/01/18 11:53:30;;;;;;;;;74.00;60.75;;;;;-3.09;44.47;101348.75;5133496;27;8835;-70
2021/01/18 11:56:32;;;;;;;;;56.50;51.75;;;;;-3.38;42.48;101355.69;5142072;27;8948;-70
2021/01/18 11:59:28;;;;;;;;;78.00;62.50;;;;;-3.82;43.09;101354.00;5149651;27;8825;-68
2021/01/18 12:01:55;;;;;;;;;70.50;58.25;;;;;-3.49;44.20;101354.53;5149377;27;8927;-69
2021/01/18 12:04:24;;;;;;;;;73.25;55.50;;;;;-3.20;43.20;101357.59;5142388;27;8927;-68
2021/01/18 12:07:10;;;;;;;;;74.00;60.50;;;;;-3.41;43.84;101367.78;5137527;27;8829;-68
2021/01/18 12:09:38;;;;;;;;;73.50;58.75;;;;;-3.30;42.14;101365.38;5145493;27;8848;-69
2021/01/18 12:12:19;;;;;;;;;76.75;62.50;;;;;-3.81;42.23;101375.41;5131179;27;8950;-69
2021/01/18 12:15:08;;;;;;;;;72.00;58.25;;;;;-3.93;43.46;101386.06;5133380;27;8850;-68
2021/01/18 12:17:38;;;;;;;;;72.00;57.75;;;;;-3.84;44.25;101385.81;5139186;27;8841;-69
2021/01/18 12:20:10;;;;;;;;;75.50;61.75;;;;;-4.07;43.86;101380.97;5134897;27;9115;-70
2021/01/18 12:23:08;;;;;;;;;83.00;65.75;;;;;-4.07;43.71;101383.66;5132720;27;8835;-70
2021/01/18 12:25:35;;;;;;;;;70.00;59.50;;;;;-4.34;45.53;101385.69;5133694;27;9435;-70
2021/01/18 12:28:31;;;;;;;;;70.75;55.00;;;;;-4.16;43.93;101374.16;5149350;27;8853;-70
2021/01/18 12:31:26;;;;;;;;;67.00;57.00;;;;;-4.26;43.96;101382.75;5132602;27;8914;-69
2021/01/18 12:34:00;;;;;;;;;69.50;58.75;;;;;-4.46;44.46;101382.81;5116486;27;8819;-70
2021/01/18 12:36:57;;;;;;;;;63.75;54.00;;;;;-4.79;43.71;101377.56;5133780;27;8885;-71
2021/01/18 12:39:26;;;;;;;;;58.75;52.25;;;;;-5.13;45.05;101376.84;5136892;27;8831;-70
2021/01/18 12:41:54;;;;;;;;;74.50;58.00;;;;;-5.28;44.90;101383.50;5152587;27;8857;-70
2021/01/18 12:44:35;;;;;;;;;70.00;56.00;;;;;-5.37;46.81;101385.56;5136720;27;8836;-70
2021/01/18 12:47:25;;;;;;;;;67.00;53.00;;;;;-5.03;45.09;101388.00;5141827;27;8852;-69
2021/01/18 12:49:53;;;;;;;;;68.75;51.00;;;;;-5.20;45.37;101392.19;5118282;27;8845;-70
2021/01/18 12:52:21;;;;;;;;;68.00;54.00;;;;;-5.35;45.54;101388.91;5115189;27;8835;-71